createdAt,value
2023-03-31T00:01:46.829Z,96.73
2023-03-31T00:05:18.375Z,96.20
2023-03-31T00:08:45.486Z,95.93
2023-03-31T00:12:12.471Z,95.53
2023-03-31T00:15:39.990Z,95.05
2023-03-31T00:19:10.282Z,95.17
2023-03-31T00:22:38.639Z,94.93
2023-03-31T00:26:06.348Z,94.74
2023-03-31T00:29:35.956Z,94.78
2023-03-31T00:33:03.177Z,95.08
2023-03-31T00:36:30.320Z,94.83
2023-03-31T00:39:57.471Z,94.64
2023-03-31T00:43:35.803Z,94.41
2023-03-31T00:47:07.213Z,94.97
2023-03-31T00:50:38.454Z,94.83
2023-03-31T00:54:09.187Z,94.54
2023-03-31T00:57:39.681Z,94.50
2023-03-31T01:01:08.427Z,94.28
2023-03-31T01:04:40.359Z,94.15
2023-03-31T01:08:08.727Z,94.00
2023-03-31T01:11:37.119Z,93.96
2023-03-31T01:15:04.948Z,93.77
2023-03-31T01:18:34.989Z,93.67
2023-03-31T01:22:41.225Z,94.04
2023-03-31T01:26:39.900Z,94.44
2023-03-31T01:30:38.252Z,94.42
2023-03-31T01:34:38.760Z,94.70
2023-03-31T01:38:31.383Z,94.19
2023-03-31T01:42:06.643Z,94.92
2023-03-31T01:45:47.427Z,95.29
2023-03-31T01:49:25.210Z,95.85
2023-03-31T01:52:58.119Z,95.82
2023-03-31T01:56:33.158Z,95.85
2023-03-31T02:00:07.520Z,95.81
2023-03-31T02:03:42.053Z,96.19
2023-03-31T02:07:17.526Z,95.98
2023-03-31T02:10:47.747Z,95.65
2023-03-31T02:14:18.897Z,95.42
2023-03-31T02:17:51.133Z,95.31
2023-03-31T02:21:20.680Z,95.28
2023-03-31T02:24:51.758Z,95.51
2023-03-31T02:28:22.518Z,95.54
2023-03-31T02:31:57.899Z,95.47
2023-03-31T02:35:25.604Z,95.56
2023-03-31T02:38:57.031Z,95.57
2023-03-31T02:42:24.252Z,95.46
2023-03-31T02:45:53.227Z,95.62
2023-03-31T02:49:21.428Z,95.36
2023-03-31T02:52:57.637Z,96.05
2023-03-31T02:56:37.303Z,95.80
2023-03-31T03:00:14.560Z,95.81
2023-03-31T03:03:52.400Z,95.82
2023-03-31T03:07:30.829Z,95.72
2023-03-31T03:11:07.778Z,95.60
2023-03-31T03:14:41.987Z,95.60
2023-03-31T03:18:09.821Z,95.53
2023-03-31T03:21:36.909Z,95.59
2023-03-31T03:25:04.230Z,95.84
2023-03-31T03:28:31.534Z,95.68
2023-03-31T03:31:58.689Z,95.95
2023-03-31T03:35:25.812Z,96.19
2023-03-31T03:38:52.862Z,96.18
2023-03-31T03:42:19.874Z,96.14
2023-03-31T03:45:50.584Z,95.97
2023-03-31T03:49:17.640Z,95.96
2023-03-31T03:52:44.632Z,95.92
2023-03-31T03:56:11.602Z,96.13
2023-03-31T03:59:38.563Z,96.02
2023-03-31T04:03:05.626Z,95.91
2023-03-31T04:06:32.738Z,96.05
2023-03-31T04:09:59.843Z,95.83
2023-03-31T04:13:27.079Z,95.86
2023-03-31T04:16:56.555Z,95.94
2023-03-31T04:20:28.100Z,96.06
2023-03-31T04:24:01.854Z,95.86
2023-03-31T04:27:29.062Z,95.85
2023-03-31T04:30:59.163Z,95.77
2023-03-31T04:34:34.919Z,95.80
2023-03-31T04:38:02.736Z,95.73
2023-03-31T04:41:29.940Z,95.76
2023-03-31T04:44:57.088Z,95.65
2023-03-31T04:48:24.116Z,95.70
2023-03-31T04:51:51.330Z,95.64
2023-03-31T04:55:18.998Z,95.81
2023-03-31T04:58:46.234Z,95.88
2023-03-31T05:02:13.305Z,95.69
2023-03-31T05:05:40.770Z,95.74
2023-03-31T05:09:09.792Z,95.82
2023-03-31T05:12:38.780Z,95.80
2023-03-31T05:16:12.341Z,95.81
2023-03-31T05:19:39.547Z,95.77
2023-03-31T05:23:07.043Z,95.73
2023-03-31T05:26:34.067Z,95.89
2023-03-31T05:30:01.168Z,95.70
2023-03-31T05:33:28.667Z,95.62
2023-03-31T05:36:55.918Z,95.50
2023-03-31T05:40:23.117Z,95.49
2023-03-31T05:43:50.170Z,95.54
2023-03-31T05:47:17.176Z,95.36
2023-03-31T05:50:44.198Z,95.20
2023-03-31T05:54:11.319Z,95.22
2023-03-31T05:57:38.389Z,95.22
2023-03-31T06:01:08.429Z,94.86
2023-03-31T06:04:37.336Z,94.76
2023-03-31T06:08:04.792Z,94.63
2023-03-31T06:11:32.160Z,94.39
2023-03-31T06:14:59.330Z,94.38
2023-03-31T06:18:28.708Z,94.24
2023-03-31T06:21:54.376Z,94.02
2023-03-31T06:25:21.803Z,93.88
2023-03-31T06:28:49.659Z,93.81
2023-03-31T06:32:16.899Z,93.66
2023-03-31T06:35:44.204Z,93.20
2023-03-31T06:39:11.478Z,93.06
2023-03-31T06:42:38.659Z,92.89
2023-03-31T06:46:07.129Z,92.52
2023-03-31T06:49:34.560Z,92.41
2023-03-31T06:53:01.701Z,91.87
2023-03-31T06:56:29.205Z,91.60
2023-03-31T06:59:56.847Z,91.36
2023-03-31T07:03:25.217Z,90.93
2023-03-31T07:06:52.645Z,90.65
2023-03-31T07:10:19.719Z,90.43
2023-03-31T07:13:46.700Z,90.20
2023-03-31T07:17:13.826Z,89.46
2023-03-31T07:20:41.357Z,89.03
2023-03-31T07:24:08.825Z,88.64
2023-03-31T07:27:36.710Z,88.58
2023-03-31T07:31:04.333Z,88.11
2023-03-31T07:34:32.184Z,87.90
2023-03-31T07:37:59.373Z,88.19
2023-03-31T07:41:27.300Z,87.96
2023-03-31T07:44:54.392Z,86.86
2023-03-31T07:48:21.572Z,86.53
2023-03-31T07:51:48.770Z,85.74
2023-03-31T07:55:16.752Z,84.23
2023-03-31T07:58:43.816Z,83.84
2023-03-31T08:02:13.620Z,83.76
2023-03-31T08:05:41.144Z,83.84
2023-03-31T08:09:08.846Z,82.91
2023-03-31T08:12:36.585Z,82.37
2023-03-31T08:16:05.288Z,82.07
2023-03-31T08:19:32.554Z,81.60
2023-03-31T08:23:00.390Z,81.23
2023-03-31T08:26:28.572Z,81.72
2023-03-31T08:29:56.391Z,82.14
2023-03-31T08:33:24.469Z,81.77
2023-03-31T08:36:52.034Z,81.39
2023-03-31T08:40:26.097Z,81.32
2023-03-31T08:43:56.134Z,81.57
2023-03-31T08:47:27.580Z,80.94
2023-03-31T08:50:59.206Z,79.41
2023-03-31T08:54:34.652Z,79.07
2023-03-31T08:58:05.141Z,77.97
2023-03-31T09:01:54.772Z,77.29
2023-03-31T09:05:59.507Z,77.50
2023-03-31T09:09:38.793Z,77.43
2023-03-31T09:13:19.171Z,76.48
2023-03-31T09:16:56.056Z,75.70
2023-03-31T09:20:28.973Z,75.29
2023-03-31T09:24:02.220Z,75.73
2023-03-31T09:27:34.889Z,74.85
2023-03-31T09:31:05.224Z,74.96
2023-03-31T09:34:36.532Z,74.12
2023-03-31T09:38:04.292Z,74.08
2023-03-31T09:41:33.102Z,74.33
2023-03-31T09:45:01.493Z,73.76
2023-03-31T09:48:30.810Z,73.59
2023-03-31T09:52:06.259Z,73.28
2023-03-31T09:55:43.920Z,71.41
2023-03-31T09:59:18.383Z,70.86
2023-03-31T10:02:49.909Z,70.32
2023-03-31T10:06:20.115Z,70.12
2023-03-31T10:09:47.651Z,68.97
2023-03-31T10:13:18.533Z,69.65
2023-03-31T10:16:49.898Z,68.29
2023-03-31T10:20:32.026Z,68.46
2023-03-31T10:24:09.168Z,68.56
2023-03-31T10:27:37.448Z,68.44
2023-03-31T10:31:06.415Z,68.04
2023-03-31T10:34:35.046Z,68.00
2023-03-31T10:38:06.192Z,67.22
2023-03-31T10:41:33.843Z,66.76
2023-03-31T10:45:36.309Z,66.49
2023-03-31T10:49:23.358Z,66.42
2023-03-31T10:52:51.466Z,65.51
2023-03-31T10:56:31.922Z,65.21
2023-03-31T11:00:20.491Z,64.72
2023-03-31T11:04:17.508Z,63.31
2023-03-31T11:07:55.294Z,63.47
2023-03-31T11:11:33.067Z,63.92
2023-03-31T11:15:16.937Z,63.95
2023-03-31T11:18:57.872Z,64.34
2023-03-31T11:22:32.228Z,63.85
2023-03-31T11:26:04.258Z,62.80
2023-03-31T11:29:38.798Z,62.83
2023-03-31T11:33:35.145Z,62.55
2023-03-31T11:37:21.573Z,62.56
2023-03-31T11:41:01.355Z,63.02
2023-03-31T11:44:32.166Z,63.40
2023-03-31T11:48:06.892Z,63.63
2023-03-31T11:51:43.255Z,64.16
2023-03-31T11:55:16.786Z,63.73
2023-03-31T11:58:51.649Z,63.99
2023-03-31T12:02:22.559Z,64.55
2023-03-31T12:05:53.183Z,64.56
2023-03-31T12:09:26.688Z,64.73
2023-03-31T12:12:57.526Z,65.62
2023-03-31T12:16:28.368Z,65.47
2023-03-31T12:19:59.141Z,65.32
2023-03-31T12:23:29.972Z,65.04
2023-03-31T12:27:06.480Z,64.43
2023-03-31T12:30:38.987Z,64.88
2023-03-31T12:34:09.860Z,64.46
2023-03-31T12:38:01.710Z,65.11
2023-03-31T12:41:38.499Z,65.28
2023-03-31T12:45:16.752Z,65.93
2023-03-31T12:48:59.096Z,66.54
2023-03-31T12:52:37.897Z,66.74
2023-03-31T12:56:06.364Z,67.48
2023-03-31T12:59:37.067Z,68.17
2023-03-31T13:03:45.192Z,68.89
2023-03-31T13:07:35.843Z,69.67
2023-03-31T13:11:03.091Z,70.30
2023-03-31T13:14:37.834Z,70.94
2023-03-31T13:18:07.603Z,71.16
2023-03-31T13:21:52.985Z,71.20
2023-03-31T13:25:53.396Z,70.84
2023-03-31T13:29:26.856Z,70.60
2023-03-31T13:33:10.988Z,70.96
2023-03-31T13:37:00.853Z,71.12
2023-03-31T13:40:56.049Z,71.13
2023-03-31T13:44:55.544Z,70.66
2023-03-31T13:48:51.196Z,70.44
2023-03-31T13:52:26.596Z,70.28
2023-03-31T13:56:16.623Z,70.29
2023-03-31T14:00:11.780Z,70.06
2023-03-31T14:03:56.392Z,69.72
2023-03-31T14:07:32.350Z,69.16
2023-03-31T14:11:19.074Z,68.00
2023-03-31T14:14:46.123Z,68.18
2023-03-31T14:18:17.828Z,68.88
2023-03-31T14:21:50.082Z,69.27
2023-03-31T14:25:29.274Z,69.69
2023-03-31T14:29:12.693Z,70.04
2023-03-31T14:32:47.653Z,70.65
2023-03-31T14:36:22.372Z,71.09
2023-03-31T14:39:52.793Z,71.38
2023-03-31T14:43:26.662Z,71.44
2023-03-31T14:46:53.938Z,71.43
2023-03-31T14:50:21.904Z,71.92
2023-03-31T14:53:49.009Z,72.64
2023-03-31T14:57:19.403Z,73.08
2023-03-31T15:00:46.644Z,73.45
2023-03-31T15:04:17.294Z,74.17
2023-03-31T15:07:44.703Z,74.47
2023-03-31T15:11:19.549Z,75.20
2023-03-31T15:14:49.612Z,75.65
2023-03-31T15:18:18.418Z,76.33
2023-03-31T15:21:46.603Z,77.03
2023-03-31T15:25:18.853Z,77.51
2023-03-31T15:28:53.607Z,77.88
2023-03-31T15:32:29.467Z,78.14
2023-03-31T15:35:58.469Z,78.56
2023-03-31T15:39:27.383Z,78.92
2023-03-31T15:46:58.984Z,79.44
2023-03-31T15:50:32.934Z,79.70
2023-03-31T15:54:05.019Z,80.00
2023-03-31T15:57:39.189Z,80.08
2023-03-31T16:01:08.727Z,80.38
2023-03-31T16:04:37.440Z,80.44
2023-03-31T16:08:13.468Z,80.76
2023-03-31T16:11:46.866Z,81.45
2023-03-31T16:15:19.770Z,81.84
2023-03-31T16:18:54.364Z,82.26
2023-03-31T16:22:27.566Z,82.98
2023-03-31T16:25:58.451Z,84.14
2023-03-31T16:29:28.972Z,84.42
2023-03-31T16:33:08.959Z,84.85
2023-03-31T16:36:38.419Z,84.56
2023-03-31T16:40:08.211Z,85.01
2023-03-31T16:43:40.526Z,85.00
2023-03-31T16:47:13.223Z,85.91
2023-03-31T16:50:47.110Z,85.90
2023-03-31T16:54:15.256Z,85.72
2023-03-31T16:57:45.445Z,86.01
2023-03-31T17:01:16.790Z,86.09
2023-03-31T17:04:44.908Z,86.27
2023-03-31T17:08:13.765Z,86.39
2023-03-31T17:11:43.719Z,86.12
2023-03-31T17:15:16.396Z,86.30
2023-03-31T17:18:47.402Z,86.11
2023-03-31T17:22:17.109Z,86.85
2023-03-31T17:25:52.889Z,87.16
2023-03-31T17:29:20.766Z,87.15
2023-03-31T17:32:51.578Z,87.02
2023-03-31T17:36:22.599Z,87.40
2023-03-31T17:39:50.910Z,87.21
2023-03-31T17:43:19.900Z,87.71
2023-03-31T17:46:49.658Z,88.34
2023-03-31T17:50:16.113Z,88.11
2023-03-31T17:53:52.019Z,88.09
2023-03-31T17:57:20.863Z,87.92
2023-03-31T18:00:56.894Z,88.10
2023-03-31T18:04:26.201Z,88.07
2023-03-31T18:07:54.018Z,87.91
2023-03-31T18:11:25.421Z,87.91
2023-03-31T18:14:57.402Z,87.86
2023-03-31T18:18:31.869Z,87.82
2023-03-31T18:22:06.200Z,87.82
2023-03-31T18:25:34.768Z,87.87
2023-03-31T18:29:08.412Z,87.77
2023-03-31T18:32:39.025Z,87.92
2023-03-31T18:36:28.716Z,87.88
2023-03-31T18:40:00.168Z,87.75
2023-03-31T18:43:32.114Z,88.02
2023-03-31T18:47:03.066Z,88.01
2023-03-31T18:50:35.424Z,88.11
2023-03-31T18:54:05.126Z,88.13
2023-03-31T18:57:33.744Z,88.20
2023-03-31T19:01:05.895Z,88.54
2023-03-31T19:04:34.805Z,88.55
2023-03-31T19:08:04.299Z,88.67
2023-03-31T19:11:33.972Z,88.76
2023-03-31T19:15:02.344Z,89.07
2023-03-31T19:18:31.225Z,89.18
2023-03-31T19:21:58.517Z,89.27
2023-03-31T19:25:25.561Z,89.40
2023-03-31T19:28:55.905Z,89.23
2023-03-31T19:32:23.132Z,89.20
2023-03-31T19:35:51.066Z,89.51
2023-03-31T19:39:18.462Z,89.65
2023-03-31T19:42:45.531Z,89.83
2023-03-31T19:46:12.586Z,89.87
2023-03-31T19:49:39.971Z,90.08
2023-03-31T19:53:07.098Z,90.10
2023-03-31T19:56:34.639Z,90.10
2023-03-31T20:00:04.136Z,90.19
2023-03-31T20:03:33.306Z,90.39
2023-03-31T20:07:00.895Z,90.44
2023-03-31T20:10:27.943Z,90.40
2023-03-31T20:13:55.375Z,90.68
2023-03-31T20:17:22.822Z,90.93
2023-03-31T20:20:49.906Z,90.96
2023-03-31T20:24:20.722Z,91.11
2023-03-31T20:27:47.973Z,91.17
2023-03-31T20:31:17.832Z,91.42
2023-03-31T20:34:45.388Z,91.84
2023-03-31T20:38:12.658Z,92.01
2023-03-31T20:41:40.207Z,92.48
2023-03-31T20:45:09.233Z,92.39
2023-03-31T20:48:39.771Z,92.40
2023-03-31T20:52:07.441Z,92.57
2023-03-31T20:55:34.661Z,92.55
2023-03-31T20:59:02.657Z,92.62
2023-03-31T21:02:29.826Z,92.71
2023-03-31T21:05:57.875Z,92.57
2023-03-31T21:09:24.985Z,92.45
2023-03-31T21:12:52.755Z,92.59
2023-03-31T21:16:20.673Z,92.57
2023-03-31T21:19:47.686Z,92.85
2023-03-31T21:23:14.856Z,92.85
2023-03-31T21:26:41.981Z,92.90
2023-03-31T21:30:11.595Z,92.78
2023-03-31T21:33:41.701Z,92.67
2023-03-31T21:37:09.954Z,92.74
2023-03-31T21:40:37.455Z,92.94
2023-03-31T21:44:04.776Z,93.05
2023-03-31T21:47:31.894Z,93.22
2023-03-31T21:51:03.320Z,93.08
2023-03-31T21:54:30.459Z,92.99
2023-03-31T21:57:57.998Z,92.97
2023-03-31T22:01:25.067Z,93.08
2023-03-31T22:04:52.420Z,93.45
2023-03-31T22:08:19.463Z,93.68
2023-03-31T22:11:46.869Z,93.82
2023-03-31T22:15:14.394Z,94.03
2023-03-31T22:18:41.457Z,94.20
2023-03-31T22:22:08.703Z,94.22
2023-03-31T22:25:36.642Z,94.04
2023-03-31T22:29:03.845Z,94.26
2023-03-31T22:32:31.045Z,94.15
2023-03-31T22:35:58.247Z,94.18
2023-03-31T22:39:25.501Z,94.08
2023-03-31T22:42:54.905Z,94.19
2023-03-31T22:46:22.415Z,94.18
2023-03-31T22:49:49.418Z,94.07
2023-03-31T22:53:16.780Z,93.98
2023-03-31T22:56:45.413Z,93.89
2023-03-31T23:00:14.386Z,93.94
2023-03-31T23:03:41.669Z,93.78
2023-03-31T23:07:08.654Z,94.09
2023-03-31T23:10:36.311Z,93.69
2023-03-31T23:14:04.695Z,93.93
2023-03-31T23:17:32.049Z,93.91
2023-03-31T23:20:59.263Z,93.90
2023-03-31T23:24:26.265Z,93.94
2023-03-31T23:27:53.364Z,94.06
2023-03-31T23:31:22.252Z,94.05
2023-03-31T23:34:49.768Z,94.01
2023-03-31T23:38:16.823Z,94.10
2023-03-31T23:41:44.010Z,93.96
2023-03-31T23:45:12.519Z,94.09
2023-03-31T23:48:40.358Z,94.00
2023-03-31T23:52:07.633Z,94.08
2023-03-31T23:55:34.824Z,94.06
2023-03-31T23:59:02.209Z,94.00
